ISR171 LLBG-LEBL
Flight info
| Callsign | ISR171 |
|---|---|
| Flight time | N/A |
| Altitude | 34000 |
| Route | SUVAS L53 ANIDE DCT TRL/N0447F360 UM601 RUTOM DCT ORVEX DCT EPIKU DCT GINOX DCT KIFMI/N0401F280 DCT ELVOP DCT MUREN DCT CHELY DCT VERSO |
| Aircraft | A320/M-SDE2FGHIJ1LORVWY/SB1 |
Departure
| Time | N/A |
|---|---|
| Airport | Ben Gurion International Airport (LLBG) |
Arrival
| Time | 2026-05-04 14:20 |
|---|---|
| Airport | Josep Tarradellas Barcelona-El Prat Airport (LEBL) |
| Time | Latitude | Longitude | Altitude | Speed | Heading |
|---|---|---|---|---|---|
| 2026-05-04 12:56 | 40.10321 | 12.07308 | 34146 ft | 363 kts | 285° |
| 2026-05-04 12:57 | 40.12216 | 11.97560 | 34122 ft | 365 kts | 284° |
| 2026-05-04 12:57 | 40.13476 | 11.91017 | 34178 ft | 378 kts | 284° |
| 2026-05-04 12:57 | 40.14119 | 11.87655 | 34301 ft | 383 kts | 284° |
| 2026-05-04 12:58 | 40.14769 | 11.84262 | 34422 ft | 387 kts | 284° |
| 2026-05-04 12:58 | 40.15427 | 11.80843 | 34628 ft | 390 kts | 284° |
| 2026-05-04 12:58 | 40.16086 | 11.77409 | 34886 ft | 390 kts | 284° |
| 2026-05-04 12:58 | 40.16744 | 11.73966 | 35162 ft | 391 kts | 284° |
| 2026-05-04 12:59 | 40.17404 | 11.70518 | 35456 ft | 391 kts | 284° |
| 2026-05-04 12:59 | 40.18072 | 11.67025 | 35750 ft | 391 kts | 284° |
| 2026-05-04 12:59 | 40.18723 | 11.63616 | 36024 ft | 391 kts | 284° |
| 2026-05-04 13:00 | 40.20041 | 11.56660 | 36132 ft | 392 kts | 284° |
| 2026-05-04 13:00 | 40.21349 | 11.49742 | 36134 ft | 391 kts | 284° |
| 2026-05-04 13:01 | 40.22660 | 11.42828 | 36130 ft | 391 kts | 284° |
| 2026-05-04 13:01 | 40.23961 | 11.35921 | 36127 ft | 392 kts | 284° |
| 2026-05-04 13:02 | 40.25258 | 11.28992 | 36130 ft | 392 kts | 283° |
| 2026-05-04 13:02 | 40.26550 | 11.22070 | 36133 ft | 392 kts | 283° |
| 2026-05-04 13:03 | 40.27832 | 11.15137 | 36132 ft | 392 kts | 283° |
| 2026-05-04 13:03 | 40.29111 | 11.08202 | 36132 ft | 392 kts | 283° |
| 2026-05-04 13:04 | 40.30394 | 11.01271 | 36133 ft | 392 kts | 283° |
| 2026-05-04 13:04 | 40.31672 | 10.94322 | 36133 ft | 392 kts | 283° |
| 2026-05-04 13:05 | 40.32945 | 10.87384 | 36132 ft | 392 kts | 283° |
| 2026-05-04 13:05 | 40.34218 | 10.80427 | 36130 ft | 392 kts | 283° |
| 2026-05-04 13:06 | 40.35487 | 10.73472 | 36128 ft | 392 kts | 283° |
| 2026-05-04 13:06 | 40.36744 | 10.66513 | 36127 ft | 392 kts | 283° |
| 2026-05-04 13:07 | 40.38003 | 10.59555 | 36128 ft | 392 kts | 283° |
| 2026-05-04 13:07 | 40.39261 | 10.52544 | 36131 ft | 392 kts | 282° |
| 2026-05-04 13:08 | 40.40494 | 10.45626 | 36129 ft | 391 kts | 282° |
| 2026-05-04 13:08 | 40.41741 | 10.38646 | 36120 ft | 391 kts | 282° |
| 2026-05-04 13:09 | 40.42970 | 10.31747 | 36123 ft | 390 kts | 282° |
| 2026-05-04 13:09 | 40.43998 | 10.25942 | 36117 ft | 390 kts | 282° |
| 2026-05-04 13:10 | 40.45222 | 10.18998 | 36107 ft | 390 kts | 282° |
| 2026-05-04 13:10 | 40.46448 | 10.12054 | 36109 ft | 391 kts | 281° |
| 2026-05-04 13:11 | 40.47663 | 10.05104 | 36116 ft | 391 kts | 281° |
| 2026-05-04 13:11 | 40.48866 | 9.98155 | 36114 ft | 390 kts | 281° |
| 2026-05-04 13:12 | 40.50069 | 9.91202 | 36109 ft | 390 kts | 281° |
| 2026-05-04 13:12 | 40.51281 | 9.84211 | 36108 ft | 390 kts | 281° |
| 2026-05-04 13:13 | 40.52478 | 9.77264 | 36107 ft | 389 kts | 280° |
| 2026-05-04 13:13 | 40.53670 | 9.70322 | 36106 ft | 389 kts | 280° |
| 2026-05-04 13:14 | 40.54867 | 9.63389 | 36095 ft | 388 kts | 280° |
| 2026-05-04 13:14 | 40.56057 | 9.56460 | 36091 ft | 389 kts | 280° |
| 2026-05-04 13:15 | 40.57238 | 9.49510 | 36087 ft | 389 kts | 280° |
| 2026-05-04 13:15 | 40.58405 | 9.42572 | 36087 ft | 390 kts | 280° |
| 2026-05-04 13:16 | 40.59583 | 9.35606 | 36084 ft | 390 kts | 279° |
| 2026-05-04 13:16 | 40.60752 | 9.28635 | 36083 ft | 390 kts | 279° |
| 2026-05-04 13:17 | 40.61915 | 9.21677 | 36074 ft | 390 kts | 279° |
| 2026-05-04 13:17 | 40.63076 | 9.14702 | 36075 ft | 390 kts | 279° |
| 2026-05-04 13:18 | 40.64234 | 9.07727 | 36078 ft | 389 kts | 279° |
| 2026-05-04 13:18 | 40.65388 | 9.00754 | 36075 ft | 390 kts | 279° |
| 2026-05-04 13:19 | 40.66528 | 8.93786 | 36071 ft | 390 kts | 279° |
| 2026-05-04 13:19 | 40.67685 | 8.86806 | 36065 ft | 391 kts | 282° |
| 2026-05-04 13:20 | 40.69338 | 8.79897 | 36070 ft | 393 kts | 284° |
| 2026-05-04 13:20 | 40.70992 | 8.73038 | 36068 ft | 393 kts | 284° |
| 2026-05-04 13:21 | 40.72640 | 8.66174 | 36070 ft | 393 kts | 283° |
| 2026-05-04 13:21 | 40.74288 | 8.59303 | 36064 ft | 393 kts | 283° |
| 2026-05-04 13:22 | 40.75930 | 8.52428 | 36053 ft | 394 kts | 283° |
| 2026-05-04 13:22 | 40.77570 | 8.45527 | 36057 ft | 394 kts | 283° |
| 2026-05-04 13:23 | 40.79211 | 8.38627 | 36058 ft | 394 kts | 283° |
| 2026-05-04 13:23 | 40.80848 | 8.31718 | 36066 ft | 395 kts | 283° |
| 2026-05-04 13:24 | 40.82481 | 8.24787 | 36054 ft | 395 kts | 282° |
| 2026-05-04 13:24 | 40.84107 | 8.17839 | 36053 ft | 396 kts | 282° |
| 2026-05-04 13:25 | 40.85900 | 8.07310 | 36066 ft | 390 kts | 271° |
| 2026-05-04 13:25 | 40.86211 | 8.00466 | 36054 ft | 390 kts | 271° |
| 2026-05-04 13:26 | 40.86630 | 7.93303 | 36053 ft | 391 kts | 272° |
| 2026-05-04 13:26 | 40.87165 | 7.86142 | 36045 ft | 392 kts | 272° |
| 2026-05-04 13:27 | 40.87684 | 7.78972 | 36045 ft | 392 kts | 272° |
| 2026-05-04 13:27 | 40.88173 | 7.71792 | 36044 ft | 393 kts | 272° |
| 2026-05-04 13:28 | 40.88650 | 7.64604 | 36045 ft | 393 kts | 272° |
| 2026-05-04 13:28 | 40.89132 | 7.57363 | 36061 ft | 393 kts | 271° |
| 2026-05-04 13:29 | 40.89603 | 7.50212 | 36054 ft | 393 kts | 271° |
| 2026-05-04 13:29 | 40.90076 | 7.43007 | 36052 ft | 394 kts | 271° |
| 2026-05-04 13:30 | 40.90549 | 7.35755 | 36049 ft | 394 kts | 271° |
| 2026-05-04 13:30 | 40.91014 | 7.28538 | 36044 ft | 394 kts | 271° |
| 2026-05-04 13:31 | 40.91470 | 7.21334 | 36039 ft | 394 kts | 271° |
| 2026-05-04 13:31 | 40.91919 | 7.14113 | 36039 ft | 394 kts | 271° |
| 2026-05-04 13:32 | 40.92365 | 7.06898 | 36037 ft | 394 kts | 271° |
| 2026-05-04 13:32 | 40.92815 | 6.99683 | 36039 ft | 394 kts | 271° |
| 2026-05-04 13:33 | 40.93256 | 6.92463 | 36034 ft | 394 kts | 271° |
| 2026-05-04 13:33 | 40.93687 | 6.85234 | 36034 ft | 394 kts | 271° |
| 2026-05-04 13:34 | 40.94113 | 6.78013 | 36035 ft | 394 kts | 271° |
| 2026-05-04 13:34 | 40.94538 | 6.70789 | 36032 ft | 394 kts | 271° |
| 2026-05-04 13:35 | 40.95176 | 6.59940 | 36023 ft | 395 kts | 270° |
| 2026-05-04 13:36 | 40.95586 | 6.52691 | 36024 ft | 395 kts | 270° |
| 2026-05-04 13:36 | 40.96005 | 6.45451 | 36035 ft | 395 kts | 270° |
| 2026-05-04 13:37 | 40.96419 | 6.38156 | 36019 ft | 395 kts | 270° |
| 2026-05-04 13:37 | 40.96823 | 6.30905 | 36015 ft | 396 kts | 270° |
| 2026-05-04 13:38 | 40.97222 | 6.23638 | 36008 ft | 396 kts | 270° |
| 2026-05-04 13:38 | 40.97622 | 6.16368 | 36014 ft | 396 kts | 270° |
| 2026-05-04 13:39 | 40.98006 | 6.09082 | 36010 ft | 396 kts | 270° |
| 2026-05-04 13:39 | 40.98398 | 6.01798 | 36004 ft | 397 kts | 269° |
| 2026-05-04 13:40 | 40.98780 | 5.94502 | 35999 ft | 398 kts | 269° |
| 2026-05-04 13:40 | 40.99158 | 5.87181 | 35992 ft | 399 kts | 269° |
| 2026-05-04 13:41 | 40.99530 | 5.79856 | 35994 ft | 399 kts | 269° |
| 2026-05-04 13:41 | 40.99892 | 5.72536 | 35993 ft | 399 kts | 269° |
| 2026-05-04 13:42 | 41.00438 | 5.61516 | 36006 ft | 400 kts | 269° |
| 2026-05-04 13:42 | 41.00737 | 5.55380 | 35998 ft | 399 kts | 269° |
| 2026-05-04 13:43 | 41.01093 | 5.48042 | 35999 ft | 400 kts | 269° |
| 2026-05-04 13:43 | 41.01444 | 5.40688 | 35996 ft | 400 kts | 269° |
| 2026-05-04 13:44 | 41.01805 | 5.33353 | 35996 ft | 400 kts | 269° |
| 2026-05-04 13:44 | 41.02205 | 5.25999 | 36003 ft | 401 kts | 269° |
| 2026-05-04 13:45 | 41.02594 | 5.18640 | 35996 ft | 401 kts | 269° |
| 2026-05-04 13:45 | 41.02967 | 5.11265 | 35992 ft | 401 kts | 269° |
| 2026-05-04 13:46 | 41.03338 | 5.03899 | 35990 ft | 401 kts | 269° |
| 2026-05-04 13:46 | 41.03711 | 4.96514 | 35984 ft | 401 kts | 269° |
| 2026-05-04 13:47 | 41.04071 | 4.89188 | 35655 ft | 395 kts | 268° |
| 2026-05-04 13:47 | 41.04241 | 4.85542 | 34940 ft | 398 kts | 268° |
| 2026-05-04 13:47 | 41.04408 | 4.81882 | 34406 ft | 396 kts | 267° |
| 2026-05-04 13:48 | 41.04579 | 4.78251 | 33990 ft | 392 kts | 268° |
| 2026-05-04 13:48 | 41.04817 | 4.74660 | 33456 ft | 391 kts | 270° |
| 2026-05-04 13:48 | 41.05155 | 4.71091 | 32962 ft | 389 kts | 271° |
| 2026-05-04 13:48 | 41.05547 | 4.67578 | 32473 ft | 385 kts | 271° |
| 2026-05-04 13:49 | 41.05965 | 4.64027 | 31978 ft | 382 kts | 272° |
| 2026-05-04 13:49 | 41.06373 | 4.60610 | 31510 ft | 378 kts | 271° |
| 2026-05-04 13:49 | 41.06777 | 4.57137 | 31060 ft | 374 kts | 271° |
| 2026-05-04 13:49 | 41.07158 | 4.53733 | 30572 ft | 372 kts | 271° |
| 2026-05-04 13:50 | 41.07525 | 4.50355 | 30119 ft | 369 kts | 271° |
| 2026-05-04 13:50 | 41.07883 | 4.47009 | 29626 ft | 366 kts | 271° |
| 2026-05-04 13:50 | 41.08238 | 4.43689 | 29196 ft | 361 kts | 271° |
| 2026-05-04 13:50 | 41.08585 | 4.40423 | 28764 ft | 356 kts | 271° |
| 2026-05-04 13:51 | 41.08929 | 4.37191 | 28359 ft | 352 kts | 271° |
| 2026-05-04 13:51 | 41.09268 | 4.34001 | 27954 ft | 348 kts | 272° |
| 2026-05-04 13:51 | 41.09602 | 4.30838 | 27555 ft | 345 kts | 272° |
| 2026-05-04 13:51 | 41.09930 | 4.27698 | 27164 ft | 342 kts | 272° |
| 2026-05-04 13:52 | 41.10579 | 4.21501 | 26380 ft | 337 kts | 272° |
| 2026-05-04 13:52 | 41.10901 | 4.18432 | 26009 ft | 335 kts | 273° |
| 2026-05-04 13:52 | 41.11222 | 4.15374 | 25580 ft | 333 kts | 273° |
| 2026-05-04 13:53 | 41.11539 | 4.12341 | 25186 ft | 331 kts | 273° |
| 2026-05-04 13:53 | 41.11853 | 4.09318 | 24773 ft | 330 kts | 273° |
| 2026-05-04 13:53 | 41.12164 | 4.06317 | 24357 ft | 328 kts | 274° |
| 2026-05-04 13:54 | 41.12782 | 4.00341 | 23520 ft | 326 kts | 274° |
| 2026-05-04 13:54 | 41.13089 | 3.97362 | 23050 ft | 325 kts | 274° |
| 2026-05-04 13:54 | 41.13693 | 3.91477 | 22208 ft | 320 kts | 274° |
| 2026-05-04 13:55 | 41.13991 | 3.88557 | 21786 ft | 318 kts | 274° |
| 2026-05-04 13:55 | 41.14577 | 3.82783 | 20967 ft | 314 kts | 274° |
| 2026-05-04 13:55 | 41.14870 | 3.79913 | 20566 ft | 313 kts | 274° |
| 2026-05-04 13:56 | 41.15159 | 3.77059 | 20139 ft | 312 kts | 274° |
| 2026-05-04 13:56 | 41.15446 | 3.74218 | 19750 ft | 312 kts | 274° |
| 2026-05-04 13:56 | 41.16023 | 3.68474 | 19053 ft | 313 kts | 274° |
| 2026-05-04 13:57 | 41.16309 | 3.65614 | 18701 ft | 312 kts | 274° |
| 2026-05-04 13:57 | 41.16595 | 3.62728 | 18348 ft | 311 kts | 274° |
| 2026-05-04 13:58 | 41.17437 | 3.54210 | 17265 ft | 309 kts | 274° |
| 2026-05-04 13:58 | 41.17989 | 3.48598 | 16573 ft | 308 kts | 274° |
| 2026-05-04 13:58 | 41.18268 | 3.45759 | 16226 ft | 307 kts | 274° |
| 2026-05-04 13:59 | 41.18545 | 3.42956 | 15880 ft | 306 kts | 274° |
| 2026-05-04 13:59 | 41.18822 | 3.40147 | 15537 ft | 305 kts | 273° |
| 2026-05-04 13:59 | 41.19365 | 3.34560 | 14850 ft | 304 kts | 273° |
| 2026-05-04 14:00 | 41.19637 | 3.31779 | 14511 ft | 303 kts | 273° |
| 2026-05-04 14:00 | 41.20178 | 3.26241 | 13834 ft | 302 kts | 273° |
| 2026-05-04 14:00 | 41.20444 | 3.23481 | 13468 ft | 301 kts | 273° |
| 2026-05-04 14:01 | 41.20706 | 3.20723 | 13123 ft | 300 kts | 273° |
| 2026-05-04 14:01 | 41.20966 | 3.17980 | 12786 ft | 299 kts | 273° |
| 2026-05-04 14:01 | 41.21467 | 3.12525 | 12116 ft | 296 kts | 272° |
| 2026-05-04 14:02 | 41.21707 | 3.09814 | 11787 ft | 295 kts | 272° |
| 2026-05-04 14:02 | 41.21947 | 3.07115 | 11454 ft | 294 kts | 272° |
| 2026-05-04 14:02 | 41.22184 | 3.04430 | 11129 ft | 292 kts | 272° |
| 2026-05-04 14:02 | 41.22417 | 3.01754 | 10794 ft | 291 kts | 272° |
| 2026-05-04 14:03 | 41.22651 | 2.99082 | 10467 ft | 290 kts | 272° |
| 2026-05-04 14:03 | 41.22883 | 2.96432 | 10143 ft | 289 kts | 272° |
| 2026-05-04 14:03 | 41.23115 | 2.93783 | 9852 ft | 286 kts | 272° |
| 2026-05-04 14:03 | 41.23344 | 2.91182 | 9784 ft | 284 kts | 272° |
| 2026-05-04 14:04 | 41.23798 | 2.85992 | 9597 ft | 283 kts | 272° |
| 2026-05-04 14:04 | 41.24022 | 2.83391 | 9496 ft | 283 kts | 272° |
| 2026-05-04 14:04 | 41.24246 | 2.80793 | 9396 ft | 283 kts | 272° |
| 2026-05-04 14:05 | 41.24689 | 2.75578 | 9198 ft | 281 kts | 272° |
| 2026-05-04 14:05 | 41.24909 | 2.72996 | 9105 ft | 281 kts | 272° |
| 2026-05-04 14:05 | 41.25128 | 2.70429 | 8994 ft | 280 kts | 273° |
| 2026-05-04 14:06 | 41.25349 | 2.67859 | 8901 ft | 280 kts | 273° |
| 2026-05-04 14:06 | 41.25465 | 2.65300 | 8805 ft | 275 kts | 264° |
| 2026-05-04 14:06 | 41.25383 | 2.62760 | 8708 ft | 275 kts | 264° |
| 2026-05-04 14:06 | 41.25304 | 2.60227 | 8612 ft | 275 kts | 264° |
| 2026-05-04 14:07 | 41.25225 | 2.57686 | 8520 ft | 274 kts | 264° |
| 2026-05-04 14:07 | 41.25147 | 2.55155 | 8423 ft | 274 kts | 264° |
| 2026-05-04 14:07 | 41.25071 | 2.52630 | 8327 ft | 274 kts | 264° |
| 2026-05-04 14:07 | 41.24992 | 2.50097 | 8228 ft | 273 kts | 264° |
| 2026-05-04 14:08 | 41.24913 | 2.47608 | 8117 ft | 266 kts | 264° |
| 2026-05-04 14:08 | 41.24900 | 2.45193 | 7992 ft | 259 kts | 275° |
| 2026-05-04 14:08 | 41.25505 | 2.42965 | 7867 ft | 258 kts | 300° |
| 2026-05-04 14:08 | 41.26774 | 2.41310 | 7710 ft | 258 kts | 327° |
| 2026-05-04 14:09 | 41.30073 | 2.39452 | 7366 ft | 260 kts | 349° |
| 2026-05-04 14:09 | 41.31861 | 2.39665 | 7167 ft | 262 kts | 22° |
| 2026-05-04 14:10 | 41.34159 | 2.43150 | 6830 ft | 258 kts | 68° |
| 2026-05-04 14:10 | 41.34896 | 2.45319 | 6640 ft | 257 kts | 68° |
| 2026-05-04 14:10 | 41.35631 | 2.47485 | 6462 ft | 256 kts | 68° |
| 2026-05-04 14:10 | 41.36366 | 2.49645 | 6298 ft | 256 kts | 68° |
| 2026-05-04 14:11 | 41.37101 | 2.51796 | 6115 ft | 255 kts | 67° |
| 2026-05-04 14:11 | 41.38942 | 2.55731 | 5832 ft | 253 kts | 32° |
| 2026-05-04 14:11 | 41.40561 | 2.56463 | 5699 ft | 242 kts | 359° |
| 2026-05-04 14:12 | 41.42142 | 2.56019 | 5582 ft | 227 kts | 328° |
| 2026-05-04 14:12 | 41.43290 | 2.54709 | 5441 ft | 212 kts | 300° |
| 2026-05-04 14:12 | 41.44012 | 2.51074 | 5198 ft | 200 kts | 266° |
| 2026-05-04 14:13 | 41.43783 | 2.49275 | 5065 ft | 196 kts | 246° |
| 2026-05-04 14:13 | 41.43207 | 2.47632 | 4955 ft | 195 kts | 244° |
| 2026-05-04 14:13 | 41.42656 | 2.45980 | 4832 ft | 196 kts | 244° |
| 2026-05-04 14:13 | 41.42100 | 2.44316 | 4641 ft | 196 kts | 244° |
| 2026-05-04 14:14 | 41.41544 | 2.42666 | 4396 ft | 195 kts | 244° |
| 2026-05-04 14:14 | 41.40433 | 2.39378 | 3905 ft | 194 kts | 244° |
| 2026-05-04 14:14 | 41.39879 | 2.37741 | 3834 ft | 194 kts | 245° |
| 2026-05-04 14:15 | 41.38770 | 2.34466 | 3675 ft | 194 kts | 244° |
| 2026-05-04 14:15 | 41.37852 | 2.31759 | 3453 ft | 192 kts | 244° |
| 2026-05-04 14:16 | 41.36762 | 2.28546 | 2979 ft | 191 kts | 245° |
| 2026-05-04 14:16 | 41.36208 | 2.26915 | 2737 ft | 194 kts | 243° |
| 2026-05-04 14:17 | 41.35125 | 2.23729 | 2246 ft | 181 kts | 244° |
| 2026-05-04 14:17 | 41.34616 | 2.22232 | 2003 ft | 169 kts | 243° |
| 2026-05-04 14:17 | 41.33737 | 2.19649 | 1588 ft | 143 kts | 242° |
| 2026-05-04 14:18 | 41.33335 | 2.18469 | 1393 ft | 140 kts | 243° |
| 2026-05-04 14:18 | 41.32536 | 2.16127 | 1033 ft | 139 kts | 244° |
| 2026-05-04 14:19 | 41.31734 | 2.13778 | 638 ft | 140 kts | 244° |
| 2026-05-04 14:19 | 41.31336 | 2.12612 | 426 ft | 138 kts | 244° |
| 2026-05-04 14:19 | 41.30941 | 2.11463 | 241 ft | 136 kts | 244° |
| 2026-05-04 14:19 | 41.30553 | 2.10311 | 65 ft | 137 kts | 244° |
| 2026-05-04 14:20 | 41.30179 | 2.09234 | 19 ft | 112 kts | 245° |
| 2026-05-04 14:20 | 41.29928 | 2.08497 | 23 ft | 63 kts | 245° |
| 2026-05-04 14:20 | 41.29795 | 2.08111 | 19 ft | 34 kts | 245° |
| 2026-05-04 14:21 | 41.29570 | 2.07808 | 17 ft | 13 kts | 214° |
| 2026-05-04 14:21 | 41.29496 | 2.07740 | 17 ft | 12 kts | 218° |
| 2026-05-04 14:21 | 41.29447 | 2.07643 | 19 ft | 17 kts | 246° |
| 2026-05-04 14:21 | 41.29394 | 2.07536 | 16 ft | 11 kts | 196° |
| 2026-05-04 14:22 | 41.29329 | 2.07500 | 16 ft | 10 kts | 241° |
| 2026-05-04 14:22 | 41.29294 | 2.07398 | 17 ft | 12 kts | 238° |
| 2026-05-04 14:22 | 41.29232 | 2.07374 | 19 ft | 8 kts | 209° |
| 2026-05-04 14:22 | 41.29196 | 2.07292 | 19 ft | 14 kts | 245° |
| 2026-05-04 14:23 | 41.29145 | 2.07218 | 19 ft | 5 kts | 169° |
| 2026-05-04 14:23 | 41.29114 | 2.07236 | 19 ft | 5 kts | 156° |
| 2026-05-04 14:23 | 41.29105 | 2.07241 | 19 ft | 0 kts | 156° |